Etusivu
METAR-TAF:

METAR-TAF

Lentoasemat :

Trollhättan-Vänersborg, Ruotsi

Leveyspiiri: 58-19N, Pituuspiiri: 012-21E, korkeus merenpinnasta: 41 m

Tämänhetkinen sää

Tämä raportti tehtiin 38 minuuttia sitten, kello 17.20 UTC
Tuuli 7 kn luoteesta
Lämpötila -1°C
Kosteus 93%
Ilmanpaine 1005 hPa
Näkyvyys 10 km tai enemmän
Hajonneita pilviä 2100 ft:n korkeudessa

METAR: ESGT 191720Z 32007KT 9999 BKN021 M01/M02 Q1005

Aika: 18:58 (17:58 UTC)

Sääennuste

Tämä raportti tehtiin 28 minuuttia sitten, kello 17.30 UTC
Ennuste voimassa 19. päivästä klo 18 UTC - 19. päivään klo 21 UTC
Tuuli 5 kn pohjoisen/luoteesta
Näkyvyys 10 km tai enemmän
Hajanaisia pilviä 2000 ft:n korkeudessa

TAF: ESGT 191730Z 1918/1921 33005KT 9999 SCT020

Säähavainnot ja -ennusteet yli 4000 lentoasemalta (METAR- ja TAF-raportit).

Käytössä olevat sääasemat on merkitty karttaan keltaisilla ja punaisilla pisteillä.

Aseta hiiri pisteen päälle nähdäksesi sääaseman nimen.

Klikkaa sitten nähdäksesi säähavainnot ja -ennusteet.

Kartan vaihtaminen: klikkaa mustalla rastilla varustettuja vihreitä pisteitä, niin voit zoomata sisään; viivalla varustettua vihreää pistettä, niin voit zoomata ulos tai vihreitä nuolia, niin pääset viereisille kartoille.


METAR-TAF: